sensor_id;sensor_type;location;lat;lon;timestamp;temperature;humidity
7388;DHT22;3735;50.136;11.062;2024-01-30T11:00:40;7.10;99.90
7388;DHT22;3735;50.136;11.062;2024-01-30T11:03:07;6.80;99.90
7388;DHT22;3735;50.136;11.062;2024-01-30T11:05:34;7.00;99.90
7388;DHT22;3735;50.136;11.062;2024-01-30T11:08:11;7.10;99.90
7388;DHT22;3735;50.136;11.062;2024-01-30T11:10:46;7.30;99.90
7388;DHT22;3735;50.136;11.062;2024-01-30T11:13:14;7.60;99.90
7388;DHT22;3735;50.136;11.062;2024-01-30T11:15:40;7.90;99.90
7388;DHT22;3735;50.136;11.062;2024-01-30T11:18:06;8.10;99.90
7388;DHT22;3735;50.136;11.062;2024-01-30T11:20:32;8.30;99.90
7388;DHT22;3735;50.136;11.062;2024-01-30T11:23:01;8.40;99.90
7388;DHT22;3735;50.136;11.062;2024-01-30T11:25:32;8.50;99.90
7388;DHT22;3735;50.136;11.062;2024-01-30T11:27:58;8.60;99.90
7388;DHT22;3735;50.136;11.062;2024-01-30T11:30:29;8.60;99.90
7388;DHT22;3735;50.136;11.062;2024-01-30T11:33:12;8.70;99.90
7388;DHT22;3735;50.136;11.062;2024-01-30T11:35:40;8.90;99.90
7388;DHT22;3735;50.136;11.062;2024-01-30T11:38:08;9.20;99.90
7388;DHT22;3735;50.136;11.062;2024-01-30T11:40:37;9.60;99.90
7388;DHT22;3735;50.136;11.062;2024-01-30T11:43:05;10.10;99.90
7388;DHT22;3735;50.136;11.062;2024-01-30T11:45:33;10.50;99.90
7388;DHT22;3735;50.136;11.062;2024-01-30T11:48:00;10.60;99.90
7388;DHT22;3735;50.136;11.062;2024-01-30T11:50:33;11.00;99.90
7388;DHT22;3735;50.136;11.062;2024-01-30T11:53:00;11.50;99.90
7388;DHT22;3735;50.136;11.062;2024-01-30T11:55:26;11.70;99.90
7388;DHT22;3735;50.136;11.062;2024-01-30T11:57:55;11.80;99.90
7388;DHT22;3735;50.136;11.062;2024-01-30T12:00:22;12.00;99.90
7388;DHT22;3735;50.136;11.062;2024-01-30T12:02:52;11.90;99.90
7388;DHT22;3735;50.136;11.062;2024-01-30T12:05:23;12.00;99.90
7388;DHT22;3735;50.136;11.062;2024-01-30T12:07:49;12.10;99.90
7388;DHT22;3735;50.136;11.062;2024-01-30T12:10:16;12.40;99.90
7388;DHT22;3735;50.136;11.062;2024-01-30T12:12:47;12.50;99.90
7388;DHT22;3735;50.136;11.062;2024-01-30T12:15:15;12.40;99.90
7388;DHT22;3735;50.136;11.062;2024-01-30T12:17:41;12.70;99.90
7388;DHT22;3735;50.136;11.062;2024-01-30T12:20:13;13.10;99.90
7388;DHT22;3735;50.136;11.062;2024-01-30T12:22:47;13.20;99.90
7388;DHT22;3735;50.136;11.062;2024-01-30T12:25:16;13.50;99.90
7388;DHT22;3735;50.136;11.062;2024-01-30T12:27:44;13.30;99.90
7388;DHT22;3735;50.136;11.062;2024-01-30T12:30:13;13.20;99.90
7388;DHT22;3735;50.136;11.062;2024-01-30T12:32:41;13.40;99.90
7388;DHT22;3735;50.136;11.062;2024-01-30T12:35:12;13.20;99.90
7388;DHT22;3735;50.136;11.062;2024-01-30T12:37:40;12.90;99.90
7388;DHT22;3735;50.136;11.062;2024-01-30T12:40:13;12.60;99.90
7388;DHT22;3735;50.136;11.062;2024-01-30T12:42:41;12.50;99.90
7388;DHT22;3735;50.136;11.062;2024-01-30T12:45:11;12.40;99.90
7388;DHT22;3735;50.136;11.062;2024-01-30T12:47:40;12.70;99.90
7388;DHT22;3735;50.136;11.062;2024-01-30T12:50:07;12.90;99.90
7388;DHT22;3735;50.136;11.062;2024-01-30T12:52:32;12.90;99.90
7388;DHT22;3735;50.136;11.062;2024-01-30T12:54:58;13.20;99.90
7388;DHT22;3735;50.136;11.062;2024-01-30T12:57:24;13.50;99.90
7388;DHT22;3735;50.136;11.062;2024-01-30T12:59:50;13.70;99.90
7388;DHT22;3735;50.136;11.062;2024-01-30T13:02:16;13.50;99.90
7388;DHT22;3735;50.136;11.062;2024-01-30T13:04:43;12.80;99.90
7388;DHT22;3735;50.136;11.062;2024-01-30T13:07:09;12.40;99.90
7388;DHT22;3735;50.136;11.062;2024-01-30T13:09:34;12.20;99.90
7388;DHT22;3735;50.136;11.062;2024-01-30T13:12:00;12.10;99.90
7388;DHT22;3735;50.136;11.062;2024-01-30T13:14:26;12.00;99.90
7388;DHT22;3735;50.136;11.062;2024-01-30T13:16:53;11.90;99.90
7388;DHT22;3735;50.136;11.062;2024-01-30T13:19:18;11.70;99.90
7388;DHT22;3735;50.136;11.062;2024-01-30T13:21:44;11.50;99.90
7388;DHT22;3735;50.136;11.062;2024-01-30T13:24:10;11.10;99.90
7388;DHT22;3735;50.136;11.062;2024-01-30T13:26:36;10.80;99.90
7388;DHT22;3735;50.136;11.062;2024-01-30T13:29:02;10.70;99.90
7388;DHT22;3735;50.136;11.062;2024-01-30T13:31:29;10.60;99.90
7388;DHT22;3735;50.136;11.062;2024-01-30T13:33:55;10.80;99.90
7388;DHT22;3735;50.136;11.062;2024-01-30T13:36:21;11.00;99.90
7388;DHT22;3735;50.136;11.062;2024-01-30T13:38:48;11.10;99.90
7388;DHT22;3735;50.136;11.062;2024-01-30T13:41:13;11.20;99.90
7388;DHT22;3735;50.136;11.062;2024-01-30T13:43:39;11.40;99.90
7388;DHT22;3735;50.136;11.062;2024-01-30T13:46:05;11.50;99.90
7388;DHT22;3735;50.136;11.062;2024-01-30T13:48:31;11.60;99.90
7388;DHT22;3735;50.136;11.062;2024-01-30T13:50:57;11.50;99.90
7388;DHT22;3735;50.136;11.062;2024-01-30T13:53:23;11.40;99.90
7388;DHT22;3735;50.136;11.062;2024-01-30T13:55:49;11.30;99.90
7388;DHT22;3735;50.136;11.062;2024-01-30T13:58:15;11.20;99.90
7388;DHT22;3735;50.136;11.062;2024-01-30T14:00:41;11.40;99.90
7388;DHT22;3735;50.136;11.062;2024-01-30T14:03:06;11.30;99.90
7388;DHT22;3735;50.136;11.062;2024-01-30T14:05:32;11.20;99.90
7388;DHT22;3735;50.136;11.062;2024-01-30T14:07:59;11.00;99.90
7388;DHT22;3735;50.136;11.062;2024-01-30T14:10:26;10.80;99.90
7388;DHT22;3735;50.136;11.062;2024-01-30T14:12:52;10.50;99.90
7388;DHT22;3735;50.136;11.062;2024-01-30T14:15:18;10.20;99.90
7388;DHT22;3735;50.136;11.062;2024-01-30T14:17:44;10.00;99.90
7388;DHT22;3735;50.136;11.062;2024-01-30T14:20:15;10.00;99.90
7388;DHT22;3735;50.136;11.062;2024-01-30T14:22:44;9.90;99.90
7388;DHT22;3735;50.136;11.062;2024-01-30T14:25:10;9.70;99.90
7388;DHT22;3735;50.136;11.062;2024-01-30T14:27:37;9.60;99.90
7388;DHT22;3735;50.136;11.062;2024-01-30T14:30:03;9.50;99.90
7388;DHT22;3735;50.136;11.062;2024-01-30T14:32:29;9.40;99.90
7388;DHT22;3735;50.136;11.062;2024-01-30T14:34:55;9.30;99.90
7388;DHT22;3735;50.136;11.062;2024-01-30T14:37:22;9.10;99.90
7388;DHT22;3735;50.136;11.062;2024-01-30T14:39:48;9.00;99.90
7388;DHT22;3735;50.136;11.062;2024-01-30T14:42:14;8.90;99.90
7388;DHT22;3735;50.136;11.062;2024-01-30T14:44:41;8.70;99.90
7388;DHT22;3735;50.136;11.062;2024-01-30T14:47:07;8.60;99.90
7388;DHT22;3735;50.136;11.062;2024-01-30T14:49:34;8.40;99.90
7388;DHT22;3735;50.136;11.062;2024-01-30T14:52:00;8.30;99.90
7388;DHT22;3735;50.136;11.062;2024-01-30T14:54:26;8.20;99.90
7388;DHT22;3735;50.136;11.062;2024-01-30T14:56:53;8.00;99.90
7388;DHT22;3735;50.136;11.062;2024-01-30T14:59:19;7.90;99.90
7388;DHT22;3735;50.136;11.062;2024-01-30T15:01:45;7.80;99.90
7388;DHT22;3735;50.136;11.062;2024-01-30T15:04:12;7.70;99.90
7388;DHT22;3735;50.136;11.062;2024-01-30T15:06:38;7.60;99.90
7388;DHT22;3735;50.136;11.062;2024-01-30T15:09:04;7.50;99.90
7388;DHT22;3735;50.136;11.062;2024-01-30T15:11:30;7.30;99.90
7388;DHT22;3735;50.136;11.062;2024-01-30T15:13:58;7.20;99.90
7388;DHT22;3735;50.136;11.062;2024-01-30T15:16:23;7.00;99.90
7388;DHT22;3735;50.136;11.062;2024-01-30T15:18:49;6.90;99.90
7388;DHT22;3735;50.136;11.062;2024-01-30T15:21:15;6.80;99.90
7388;DHT22;3735;50.136;11.062;2024-01-30T15:23:45;6.70;99.90
7388;DHT22;3735;50.136;11.062;2024-01-30T15:26:11;6.60;99.90
7388;DHT22;3735;50.136;11.062;2024-01-30T15:28:38;6.50;99.90
7388;DHT22;3735;50.136;11.062;2024-01-30T15:31:05;6.40;99.90
7388;DHT22;3735;50.136;11.062;2024-01-30T15:33:32;6.30;99.90
7388;DHT22;3735;50.136;11.062;2024-01-30T15:36:02;6.20;99.90
7388;DHT22;3735;50.136;11.062;2024-01-30T15:38:28;6.00;99.90
7388;DHT22;3735;50.136;11.062;2024-01-30T15:40:55;5.90;99.90
7388;DHT22;3735;50.136;11.062;2024-01-30T15:43:21;5.70;99.90
7388;DHT22;3735;50.136;11.062;2024-01-30T15:45:49;5.60;99.90
7388;DHT22;3735;50.136;11.062;2024-01-30T15:48:16;5.50;99.90
7388;DHT22;3735;50.136;11.062;2024-01-30T15:50:45;5.30;99.90
7388;DHT22;3735;50.136;11.062;2024-01-30T15:53:11;5.20;99.90
7388;DHT22;3735;50.136;11.062;2024-01-30T15:55:37;5.10;99.90
7388;DHT22;3735;50.136;11.062;2024-01-30T15:58:06;5.00;99.90
7388;DHT22;3735;50.136;11.062;2024-01-30T16:00:32;4.80;99.90
7388;DHT22;3735;50.136;11.062;2024-01-30T16:02:58;4.70;99.90
7388;DHT22;3735;50.136;11.062;2024-01-30T16:05:24;4.50;99.90
7388;DHT22;3735;50.136;11.062;2024-01-30T16:07:50;4.30;99.90
7388;DHT22;3735;50.136;11.062;2024-01-30T16:10:16;4.20;99.90
7388;DHT22;3735;50.136;11.062;2024-01-30T16:12:45;4.10;99.90
7388;DHT22;3735;50.136;11.062;2024-01-30T16:15:14;3.90;99.90
7388;DHT22;3735;50.136;11.062;2024-01-30T16:17:41;3.90;99.90
7388;DHT22;3735;50.136;11.062;2024-01-30T16:20:08;3.80;99.90
7388;DHT22;3735;50.136;11.062;2024-01-30T16:22:34;3.70;99.90
7388;DHT22;3735;50.136;11.062;2024-01-30T16:25:01;3.60;99.90
7388;DHT22;3735;50.136;11.062;2024-01-30T16:27:27;3.50;99.90
7388;DHT22;3735;50.136;11.062;2024-01-30T16:29:53;3.40;99.90
7388;DHT22;3735;50.136;11.062;2024-01-30T16:32:19;3.40;99.90
7388;DHT22;3735;50.136;11.062;2024-01-30T16:34:45;3.40;99.90
7388;DHT22;3735;50.136;11.062;2024-01-30T16:37:11;3.40;99.90
7388;DHT22;3735;50.136;11.062;2024-01-30T16:39:37;3.30;99.90
7388;DHT22;3735;50.136;11.062;2024-01-30T16:42:03;3.30;99.90
7388;DHT22;3735;50.136;11.062;2024-01-30T16:44:29;3.30;99.90
7388;DHT22;3735;50.136;11.062;2024-01-30T16:46:55;3.30;99.90
7388;DHT22;3735;50.136;11.062;2024-01-30T16:49:20;3.30;99.90
7388;DHT22;3735;50.136;11.062;2024-01-30T16:51:46;3.30;99.90
7388;DHT22;3735;50.136;11.062;2024-01-30T16:54:12;3.30;99.90
7388;DHT22;3735;50.136;11.062;2024-01-30T16:56:38;3.40;99.90
7388;DHT22;3735;50.136;11.062;2024-01-30T16:59:03;3.40;99.90
7388;DHT22;3735;50.136;11.062;2024-01-30T17:01:29;3.30;99.90
7388;DHT22;3735;50.136;11.062;2024-01-30T17:03:55;3.30;99.90
7388;DHT22;3735;50.136;11.062;2024-01-30T17:06:21;3.40;99.90
7388;DHT22;3735;50.136;11.062;2024-01-30T17:08:47;3.40;99.90
7388;DHT22;3735;50.136;11.062;2024-01-30T17:11:12;3.40;99.90
7388;DHT22;3735;50.136;11.062;2024-01-30T17:13:38;3.40;99.90
7388;DHT22;3735;50.136;11.062;2024-01-30T17:16:04;3.30;99.90
7388;DHT22;3735;50.136;11.062;2024-01-30T17:18:31;3.30;99.90
7388;DHT22;3735;50.136;11.062;2024-01-30T17:20:57;3.30;99.90
7388;DHT22;3735;50.136;11.062;2024-01-30T17:23:23;3.30;99.90
7388;DHT22;3735;50.136;11.062;2024-01-30T17:25:51;3.30;99.90
7388;DHT22;3735;50.136;11.062;2024-01-30T17:28:17;3.30;99.90
7388;DHT22;3735;50.136;11.062;2024-01-30T17:30:43;3.30;99.90
7388;DHT22;3735;50.136;11.062;2024-01-30T17:33:09;3.30;99.90
7388;DHT22;3735;50.136;11.062;2024-01-30T17:35:35;3.30;99.90
7388;DHT22;3735;50.136;11.062;2024-01-30T17:38:00;3.30;99.90
7388;DHT22;3735;50.136;11.062;2024-01-30T17:40:27;3.30;99.90
7388;DHT22;3735;50.136;11.062;2024-01-30T17:42:53;3.30;99.90
7388;DHT22;3735;50.136;11.062;2024-01-30T17:45:19;3.30;99.90
7388;DHT22;3735;50.136;11.062;2024-01-30T17:47:44;3.30;99.90
7388;DHT22;3735;50.136;11.062;2024-01-30T17:50:10;3.20;99.90
7388;DHT22;3735;50.136;11.062;2024-01-30T17:52:36;3.20;99.90
7388;DHT22;3735;50.136;11.062;2024-01-30T17:55:03;3.10;99.90
7388;DHT22;3735;50.136;11.062;2024-01-30T17:57:30;3.10;99.90
7388;DHT22;3735;50.136;11.062;2024-01-30T17:59:55;3.00;99.90
7388;DHT22;3735;50.136;11.062;2024-01-30T18:02:21;2.90;99.90
7388;DHT22;3735;50.136;11.062;2024-01-30T18:04:47;2.90;99.90
7388;DHT22;3735;50.136;11.062;2024-01-30T18:07:13;2.80;99.90
7388;DHT22;3735;50.136;11.062;2024-01-30T18:09:40;2.80;99.90
7388;DHT22;3735;50.136;11.062;2024-01-30T18:12:06;2.70;99.90
7388;DHT22;3735;50.136;11.062;2024-01-30T18:14:32;2.70;99.90
7388;DHT22;3735;50.136;11.062;2024-01-30T18:16:58;2.60;99.90
7388;DHT22;3735;50.136;11.062;2024-01-30T18:19:24;2.60;99.90
7388;DHT22;3735;50.136;11.062;2024-01-30T18:21:49;2.60;99.90
7388;DHT22;3735;50.136;11.062;2024-01-30T18:24:16;2.50;99.90
7388;DHT22;3735;50.136;11.062;2024-01-30T18:26:42;2.50;99.90
7388;DHT22;3735;50.136;11.062;2024-01-30T18:29:08;2.50;99.90
7388;DHT22;3735;50.136;11.062;2024-01-30T18:31:33;2.50;99.90
7388;DHT22;3735;50.136;11.062;2024-01-30T18:33:59;2.50;99.90
7388;DHT22;3735;50.136;11.062;2024-01-30T18:36:25;2.50;99.90
7388;DHT22;3735;50.136;11.062;2024-01-30T18:38:51;2.50;99.90
7388;DHT22;3735;50.136;11.062;2024-01-30T18:41:17;2.50;99.90
7388;DHT22;3735;50.136;11.062;2024-01-30T18:43:44;2.50;99.90
7388;DHT22;3735;50.136;11.062;2024-01-30T18:46:10;2.50;99.90
7388;DHT22;3735;50.136;11.062;2024-01-30T18:48:39;2.60;99.90
7388;DHT22;3735;50.136;11.062;2024-01-30T18:51:06;2.60;99.90
7388;DHT22;3735;50.136;11.062;2024-01-30T18:53:32;2.60;99.90
7388;DHT22;3735;50.136;11.062;2024-01-30T18:55:58;2.60;99.90
7388;DHT22;3735;50.136;11.062;2024-01-30T18:58:24;2.70;99.90
7388;DHT22;3735;50.136;11.062;2024-01-30T19:00:50;2.70;99.90
7388;DHT22;3735;50.136;11.062;2024-01-30T19:03:17;2.70;99.90
7388;DHT22;3735;50.136;11.062;2024-01-30T19:05:44;2.70;99.90
7388;DHT22;3735;50.136;11.062;2024-01-30T19:08:10;2.70;99.90
7388;DHT22;3735;50.136;11.062;2024-01-30T19:10:36;2.70;99.90
7388;DHT22;3735;50.136;11.062;2024-01-30T19:13:02;2.70;99.90
7388;DHT22;3735;50.136;11.062;2024-01-30T19:15:31;2.70;99.90
7388;DHT22;3735;50.136;11.062;2024-01-30T19:18:00;2.70;99.90
7388;DHT22;3735;50.136;11.062;2024-01-30T19:20:29;2.70;99.90
7388;DHT22;3735;50.136;11.062;2024-01-30T19:22:55;2.70;99.90
7388;DHT22;3735;50.136;11.062;2024-01-30T19:25:22;2.70;99.90
7388;DHT22;3735;50.136;11.062;2024-01-30T19:27:48;2.70;99.90
7388;DHT22;3735;50.136;11.062;2024-01-30T19:30:14;2.70;99.90
7388;DHT22;3735;50.136;11.062;2024-01-30T19:32:40;2.70;99.90
7388;DHT22;3735;50.136;11.062;2024-01-30T19:35:07;2.70;99.90
7388;DHT22;3735;50.136;11.062;2024-01-30T19:37:33;2.70;99.90
7388;DHT22;3735;50.136;11.062;2024-01-30T19:40:01;2.70;99.90
7388;DHT22;3735;50.136;11.062;2024-01-30T19:42:30;2.70;99.90
7388;DHT22;3735;50.136;11.062;2024-01-30T19:44:56;2.70;99.90
7388;DHT22;3735;50.136;11.062;2024-01-30T19:47:21;2.70;99.90
7388;DHT22;3735;50.136;11.062;2024-01-30T19:49:47;2.60;99.90
7388;DHT22;3735;50.136;11.062;2024-01-30T19:52:14;2.60;99.90
7388;DHT22;3735;50.136;11.062;2024-01-30T19:54:40;2.60;99.90
7388;DHT22;3735;50.136;11.062;2024-01-30T19:57:09;2.60;99.90
7388;DHT22;3735;50.136;11.062;2024-01-30T19:59:35;2.60;99.90
7388;DHT22;3735;50.136;11.062;2024-01-30T20:02:02;2.60;99.90
7388;DHT22;3735;50.136;11.062;2024-01-30T20:04:29;2.60;99.90
7388;DHT22;3735;50.136;11.062;2024-01-30T20:06:55;2.50;99.90
7388;DHT22;3735;50.136;11.062;2024-01-30T20:09:21;2.60;99.90
7388;DHT22;3735;50.136;11.062;2024-01-30T20:11:48;2.60;99.90
7388;DHT22;3735;50.136;11.062;2024-01-30T20:14:15;2.60;99.90
7388;DHT22;3735;50.136;11.062;2024-01-30T20:16:42;2.60;99.90
7388;DHT22;3735;50.136;11.062;2024-01-30T20:19:09;2.70;99.90
7388;DHT22;3735;50.136;11.062;2024-01-30T20:21:36;2.70;99.90
7388;DHT22;3735;50.136;11.062;2024-01-30T20:24:06;2.80;99.90
7388;DHT22;3735;50.136;11.062;2024-01-30T20:26:34;2.80;99.90
7388;DHT22;3735;50.136;11.062;2024-01-30T20:28:59;2.90;99.90
7388;DHT22;3735;50.136;11.062;2024-01-30T20:31:26;2.90;99.90
7388;DHT22;3735;50.136;11.062;2024-01-30T20:33:53;3.00;99.90
7388;DHT22;3735;50.136;11.062;2024-01-30T20:36:19;3.00;99.90
7388;DHT22;3735;50.136;11.062;2024-01-30T20:38:45;3.00;99.90
7388;DHT22;3735;50.136;11.062;2024-01-30T20:41:15;3.00;99.90
7388;DHT22;3735;50.136;11.062;2024-01-30T20:43:41;3.00;99.90
7388;DHT22;3735;50.136;11.062;2024-01-30T20:46:08;3.00;99.90
7388;DHT22;3735;50.136;11.062;2024-01-30T20:48:34;3.00;99.90
7388;DHT22;3735;50.136;11.062;2024-01-30T20:51:01;3.00;99.90
7388;DHT22;3735;50.136;11.062;2024-01-30T20:53:26;3.00;99.90
7388;DHT22;3735;50.136;11.062;2024-01-30T20:55:52;3.10;99.90
7388;DHT22;3735;50.136;11.062;2024-01-30T20:58:18;3.00;99.90
7388;DHT22;3735;50.136;11.062;2024-01-30T21:00:44;3.10;99.90
7388;DHT22;3735;50.136;11.062;2024-01-30T21:03:10;3.10;99.90
7388;DHT22;3735;50.136;11.062;2024-01-30T21:05:37;3.00;99.90
7388;DHT22;3735;50.136;11.062;2024-01-30T21:08:03;3.00;99.90
7388;DHT22;3735;50.136;11.062;2024-01-30T21:10:30;3.10;99.90
7388;DHT22;3735;50.136;11.062;2024-01-30T21:12:56;3.00;99.90
7388;DHT22;3735;50.136;11.062;2024-01-30T21:15:22;3.10;99.90
7388;DHT22;3735;50.136;11.062;2024-01-30T21:17:47;3.10;99.90
7388;DHT22;3735;50.136;11.062;2024-01-30T21:20:14;3.00;99.90
7388;DHT22;3735;50.136;11.062;2024-01-30T21:22:40;3.10;99.90
7388;DHT22;3735;50.136;11.062;2024-01-30T21:25:06;3.10;99.90
7388;DHT22;3735;50.136;11.062;2024-01-30T21:27:35;3.00;99.90
7388;DHT22;3735;50.136;11.062;2024-01-30T21:30:08;3.00;99.90
7388;DHT22;3735;50.136;11.062;2024-01-30T21:32:35;3.00;99.90
7388;DHT22;3735;50.136;11.062;2024-01-30T21:35:03;3.10;99.90
7388;DHT22;3735;50.136;11.062;2024-01-30T21:37:30;3.10;99.90
7388;DHT22;3735;50.136;11.062;2024-01-30T21:39:58;3.10;99.90
7388;DHT22;3735;50.136;11.062;2024-01-30T21:42:29;3.10;99.90
7388;DHT22;3735;50.136;11.062;2024-01-30T21:44:55;3.10;99.90
7388;DHT22;3735;50.136;11.062;2024-01-30T21:47:22;3.10;99.90
7388;DHT22;3735;50.136;11.062;2024-01-30T21:49:49;3.10;99.90
7388;DHT22;3735;50.136;11.062;2024-01-30T21:52:15;3.10;99.90
7388;DHT22;3735;50.136;11.062;2024-01-30T21:54:42;3.20;99.90
7388;DHT22;3735;50.136;11.062;2024-01-30T21:57:08;3.10;99.90
7388;DHT22;3735;50.136;11.062;2024-01-30T21:59:34;3.10;99.90
7388;DHT22;3735;50.136;11.062;2024-01-30T22:02:01;3.10;99.90
7388;DHT22;3735;50.136;11.062;2024-01-30T22:04:28;3.20;99.90
7388;DHT22;3735;50.136;11.062;2024-01-30T22:06:53;3.20;99.90
7388;DHT22;3735;50.136;11.062;2024-01-30T22:09:19;3.20;99.90
7388;DHT22;3735;50.136;11.062;2024-01-30T22:11:47;3.20;99.90
7388;DHT22;3735;50.136;11.062;2024-01-30T22:14:15;3.30;99.90
7388;DHT22;3735;50.136;11.062;2024-01-30T22:16:41;3.30;99.90
7388;DHT22;3735;50.136;11.062;2024-01-30T22:19:07;3.30;99.90
7388;DHT22;3735;50.136;11.062;2024-01-30T22:21:38;3.30;99.90
7388;DHT22;3735;50.136;11.062;2024-01-30T22:24:04;3.30;99.90
7388;DHT22;3735;50.136;11.062;2024-01-30T22:26:30;3.30;99.90
7388;DHT22;3735;50.136;11.062;2024-01-30T22:28:55;3.40;99.90
7388;DHT22;3735;50.136;11.062;2024-01-30T22:31:23;3.40;99.90
7388;DHT22;3735;50.136;11.062;2024-01-30T22:33:48;3.40;99.90
7388;DHT22;3735;50.136;11.062;2024-01-30T22:36:14;3.40;99.90
7388;DHT22;3735;50.136;11.062;2024-01-30T22:38:42;3.40;99.90
7388;DHT22;3735;50.136;11.062;2024-01-30T22:41:08;3.30;99.90
7388;DHT22;3735;50.136;11.062;2024-01-30T22:43:35;3.30;99.90
7388;DHT22;3735;50.136;11.062;2024-01-30T22:46:02;3.30;99.90
7388;DHT22;3735;50.136;11.062;2024-01-30T22:48:27;3.30;99.90
7388;DHT22;3735;50.136;11.062;2024-01-30T22:50:53;3.30;99.90
7388;DHT22;3735;50.136;11.062;2024-01-30T22:53:19;3.20;99.90
7388;DHT22;3735;50.136;11.062;2024-01-30T22:55:45;3.20;99.90
7388;DHT22;3735;50.136;11.062;2024-01-30T22:58:11;3.10;99.90
7388;DHT22;3735;50.136;11.062;2024-01-30T23:00:36;3.10;99.90
7388;DHT22;3735;50.136;11.062;2024-01-30T23:03:03;3.00;99.90
7388;DHT22;3735;50.136;11.062;2024-01-30T23:05:29;2.80;99.90
7388;DHT22;3735;50.136;11.062;2024-01-30T23:07:55;2.80;99.90
7388;DHT22;3735;50.136;11.062;2024-01-30T23:10:21;2.60;99.90
7388;DHT22;3735;50.136;11.062;2024-01-30T23:12:47;2.60;99.90
7388;DHT22;3735;50.136;11.062;2024-01-30T23:15:13;2.60;99.90
7388;DHT22;3735;50.136;11.062;2024-01-30T23:17:39;2.50;99.90
7388;DHT22;3735;50.136;11.062;2024-01-30T23:20:06;2.40;99.90
7388;DHT22;3735;50.136;11.062;2024-01-30T23:22:33;2.20;99.90
7388;DHT22;3735;50.136;11.062;2024-01-30T23:24:59;2.10;99.90
7388;DHT22;3735;50.136;11.062;2024-01-30T23:27:25;1.90;99.90
7388;DHT22;3735;50.136;11.062;2024-01-30T23:29:51;1.80;99.90
7388;DHT22;3735;50.136;11.062;2024-01-30T23:32:17;1.70;99.90
7388;DHT22;3735;50.136;11.062;2024-01-30T23:34:43;1.60;99.90
7388;DHT22;3735;50.136;11.062;2024-01-30T23:37:08;1.60;99.90
7388;DHT22;3735;50.136;11.062;2024-01-30T23:39:34;1.70;99.90
7388;DHT22;3735;50.136;11.062;2024-01-30T23:42:01;1.80;99.90
7388;DHT22;3735;50.136;11.062;2024-01-30T23:44:27;1.90;99.90
7388;DHT22;3735;50.136;11.062;2024-01-30T23:46:52;2.00;99.90
7388;DHT22;3735;50.136;11.062;2024-01-30T23:49:18;2.00;99.90
7388;DHT22;3735;50.136;11.062;2024-01-30T23:51:45;2.00;99.90
7388;DHT22;3735;50.136;11.062;2024-01-30T23:54:10;2.00;99.90
7388;DHT22;3735;50.136;11.062;2024-01-30T23:56:40;2.10;99.90
7388;DHT22;3735;50.136;11.062;2024-01-30T23:59:08;2.10;99.90
